Time;durP1;ratioP1;P1;durP2;ratioP2;P2;SDS_P1;SDS_P2;PMS_P1;PMS_P2;Temp;Humidity;BMP_temperature;BMP_pressure;BME280_temperature;BME280_humidity;BME280_pressure;Samples;Min_cycle;Max_cycle;Signal;HPM_P1;HPM_P2
2023/03/21 00:00:37;;;;;;;5.80;4.33;;;;;;;;;;5056936;28;20421;-84
2023/03/21 00:03:03;;;;;;;6.27;4.43;;;;;;;;;;5046076;28;20434;-83
2023/03/21 00:05:30;;;;;;;8.07;4.63;;;;;;;;;;5073847;28;20452;-84
2023/03/21 00:07:56;;;;;;;5.30;4.50;;;;;;;;;;5074424;28;20431;-83
2023/03/21 00:10:22;;;;;;;5.17;4.27;;;;;;;;;;5071712;28;20456;-83
2023/03/21 00:12:57;;;;;;;9.97;4.77;;;;;;;;;;5067527;28;20440;-83
2023/03/21 00:15:25;;;;;;;5.00;4.60;;;;;;;;;;5091378;28;20411;-84
2023/03/21 00:17:57;;;;;;;8.53;4.90;;;;;;;;;;5081443;28;20461;-84
2023/03/21 00:20:23;;;;;;;5.83;4.67;;;;;;;;;;5073680;28;20530;-84
2023/03/21 00:22:50;;;;;;;4.80;3.70;;;;;;;;;;5067130;28;21286;-84
2023/03/21 00:25:16;;;;;;;5.93;5.30;;;;;;;;;;5058429;28;20451;-82
2023/03/21 00:27:42;;;;;;;4.30;3.97;;;;;;;;;;5085773;28;20503;-84
2023/03/21 00:30:09;;;;;;;6.03;4.33;;;;;;;;;;5114030;28;20461;-85
2023/03/21 00:32:35;;;;;;;5.33;4.40;;;;;;;;;;5112841;28;20447;-86
2023/03/21 00:35:01;;;;;;;9.30;4.40;;;;;;;;;;5110900;28;20440;-85
2023/03/21 00:37:27;;;;;;;6.27;4.20;;;;;;;;;;5078894;28;20460;-85
2023/03/21 00:39:53;;;;;;;8.50;5.47;;;;;;;;;;5092500;28;20482;-85
2023/03/21 00:42:20;;;;;;;7.20;4.50;;;;;;;;;;5097073;28;20409;-85
2023/03/21 00:44:45;;;;;;;4.57;4.17;;;;;;;;;;5079182;28;20435;-85
2023/03/21 00:47:12;;;;;;;9.13;4.70;;;;;;;;;;5113104;28;20424;-84
2023/03/21 00:49:38;;;;;;;9.03;5.30;;;;;;;;;;5089272;28;20828;-85
2023/03/21 00:52:05;;;;;;;8.97;4.57;;;;;;;;;;5066906;28;20523;-84
2023/03/21 00:54:32;;;;;;;8.40;6.10;;;;;;;;;;5082570;28;20515;-85
2023/03/21 00:57:01;;;;;;;4.90;4.50;;;;;;;;;;5085203;28;20459;-84
2023/03/21 00:59:28;;;;;;;5.27;4.63;;;;;;;;;;5093645;28;20432;-84
2023/03/21 01:01:54;;;;;;;4.93;4.50;;;;;;;;;;5070650;28;20429;-84
2023/03/21 01:04:25;;;;;;;5.57;5.00;;;;;;;;;;5068442;28;20488;-85
2023/03/21 01:06:51;;;;;;;5.27;4.73;;;;;;;;;;5074751;28;20892;-84
2023/03/21 01:09:18;;;;;;;5.70;4.80;;;;;;;;;;5068407;28;20796;-84
2023/03/21 01:11:45;;;;;;;6.43;4.70;;;;;;;;;;5077573;28;20830;-82
2023/03/21 01:14:11;;;;;;;11.13;5.20;;;;;;;;;;5055418;28;20952;-84
2023/03/21 01:16:38;;;;;;;5.37;4.87;;;;;;;;;;5070244;28;20425;-84
2023/03/21 01:19:05;;;;;;;5.13;4.63;;;;;;;;;;5090441;28;20562;-85
2023/03/21 01:21:31;;;;;;;14.97;6.60;;;;;;;;;;5091665;28;20751;-85
2023/03/21 01:23:57;;;;;;;9.60;5.40;;;;;;;;;;5064952;28;20439;-85
2023/03/21 01:26:23;;;;;;;9.53;5.40;;;;;;;;;;5074607;28;20928;-84
2023/03/21 01:28:49;;;;;;;8.80;6.03;;;;;;;;;;5065826;28;20456;-84
2023/03/21 01:31:16;;;;;;;12.80;6.97;;;;;;;;;;5093771;28;20437;-82
2023/03/21 01:33:43;;;;;;;8.90;5.77;;;;;;;;;;5079438;28;20440;-85
2023/03/21 01:36:23;;;;;;;8.87;4.97;;;;;;;;;;5074769;28;20440;-85
2023/03/21 01:38:49;;;;;;;12.77;7.00;;;;;;;;;;5073710;28;20665;-85
2023/03/21 01:41:25;;;;;;;7.47;6.67;;;;;;;;;;5077131;28;20438;-84
2023/03/21 01:43:52;;;;;;;12.90;7.07;;;;;;;;;;5071012;28;20439;-85
2023/03/21 01:46:27;;;;;;;7.50;6.60;;;;;;;;;;5082762;28;20427;-84
2023/03/21 01:48:55;;;;;;;7.73;6.87;;;;;;;;;;5073844;28;20452;-85
2023/03/21 01:51:22;;;;;;;9.00;6.77;;;;;;;;;;5064922;28;20516;-85
2023/03/21 01:53:48;;;;;;;10.27;8.10;;;;;;;;;;5081465;28;20579;-84
2023/03/21 01:56:28;;;;;;;9.93;6.33;;;;;;;;;;5090259;28;20426;-83
2023/03/21 01:59:01;;;;;;;9.73;6.67;;;;;;;;;;5087979;28;20493;-82
2023/03/21 02:01:28;;;;;;;14.60;6.90;;;;;;;;;;5077388;28;20447;-83
2023/03/21 03:22:41;;;;;;;11.47;8.23;;;;;;;;;;5064554;28;20463;-84
2023/03/21 03:25:10;;;;;;;12.63;8.90;;;;;;;;;;5077773;28;20436;-84
2023/03/21 03:27:38;;;;;;;15.40;9.00;;;;;;;;;;5079538;28;20450;-84
2023/03/21 03:30:05;;;;;;;12.67;9.00;;;;;;;;;;5073306;28;20432;-84
2023/03/21 03:32:35;;;;;;;10.70;8.40;;;;;;;;;;5069149;28;20467;-85
2023/03/21 03:35:03;;;;;;;19.47;8.73;;;;;;;;;;5076416;28;20960;-86
2023/03/21 03:37:30;;;;;;;15.10;8.93;;;;;;;;;;5087266;28;20466;-86
2023/03/21 03:40:15;;;;;;;13.50;8.40;;;;;;;;;;5081452;28;20431;-85
2023/03/21 03:42:49;;;;;;;11.33;8.27;;;;;;;;;;5063540;28;20507;-83
2023/03/21 03:45:16;;;;;;;12.43;8.20;;;;;;;;;;5080217;28;20522;-85
2023/03/21 03:48:02;;;;;;;13.70;8.30;;;;;;;;;;5071708;28;20427;-84
2023/03/21 03:50:30;;;;;;;9.50;7.90;;;;;;;;;;5080521;28;20433;-85
2023/03/21 03:53:04;;;;;;;8.77;7.87;;;;;;;;;;5069924;28;20473;-84
2023/03/21 03:55:33;;;;;;;10.90;8.50;;;;;;;;;;5081362;28;20427;-85
2023/03/21 03:57:59;;;;;;;11.20;8.37;;;;;;;;;;5085349;28;20458;-84
2023/03/21 04:00:31;;;;;;;12.20;8.10;;;;;;;;;;5075605;28;20448;-85
2023/03/21 04:02:57;;;;;;;17.50;8.40;;;;;;;;;;5076459;28;20428;-83
2023/03/21 04:05:24;;;;;;;9.00;7.67;;;;;;;;;;5076208;28;20459;-83
2023/03/21 04:07:50;;;;;;;13.70;9.20;;;;;;;;;;5082086;28;20427;-83
2023/03/21 04:10:16;;;;;;;16.57;8.33;;;;;;;;;;5085117;28;20456;-83
2023/03/21 04:12:42;;;;;;;9.47;8.57;;;;;;;;;;5074228;28;20532;-84
2023/03/21 04:15:09;;;;;;;13.20;8.00;;;;;;;;;;5072801;28;20481;-82
2023/03/21 04:17:35;;;;;;;9.77;8.10;;;;;;;;;;5078506;28;20467;-82
2023/03/21 04:20:04;;;;;;;11.83;8.20;;;;;;;;;;5077682;28;20428;-83
2023/03/21 04:22:32;;;;;;;11.93;8.00;;;;;;;;;;5069501;28;20428;-84
2023/03/21 04:24:58;;;;;;;8.63;7.73;;;;;;;;;;5074966;28;20458;-83
2023/03/21 04:27:24;;;;;;;13.20;8.47;;;;;;;;;;5084163;28;20446;-82
2023/03/21 04:29:50;;;;;;;9.27;7.20;;;;;;;;;;5091472;28;20443;-84
2023/03/21 04:32:16;;;;;;;14.20;8.83;;;;;;;;;;5081233;28;20984;-82
2023/03/21 04:34:48;;;;;;;14.00;8.53;;;;;;;;;;5080341;28;20439;-85
2023/03/21 04:37:18;;;;;;;8.90;7.07;;;;;;;;;;5091722;28;20432;-85
2023/03/21 04:39:47;;;;;;;9.67;7.33;;;;;;;;;;5087619;28;20460;-83
2023/03/21 04:42:14;;;;;;;11.17;8.17;;;;;;;;;;5083410;28;20443;-77
2023/03/21 04:44:40;;;;;;;14.07;9.30;;;;;;;;;;5064169;28;20445;-77
2023/03/21 04:47:06;;;;;;;9.77;7.93;;;;;;;;;;5082654;28;20443;-78
2023/03/21 04:49:32;;;;;;;9.93;8.10;;;;;;;;;;5091808;28;20448;-85
2023/03/21 04:51:59;;;;;;;17.03;8.60;;;;;;;;;;5076693;28;20468;-86
2023/03/21 04:54:25;;;;;;;7.93;7.23;;;;;;;;;;5081667;28;20425;-85
2023/03/21 04:59:23;;;;;;;14.03;8.60;;;;;;;;;;5102528;28;20529;-91
2023/03/21 05:01:50;;;;;;;12.70;8.23;;;;;;;;;;5063268;28;20527;-92
2023/03/21 05:04:23;;;;;;;11.20;8.83;;;;;;;;;;5063496;28;20437;-93
2023/03/21 05:06:49;;;;;;;9.47;7.30;;;;;;;;;;5067205;28;20467;-92
2023/03/21 05:09:15;;;;;;;10.70;8.10;;;;;;;;;;5069756;28;20439;-91
2023/03/21 05:11:41;;;;;;;12.43;8.03;;;;;;;;;;5072846;28;20423;-90
2023/03/21 05:14:18;;;;;;;9.23;8.13;;;;;;;;;;5069753;28;20451;-93
2023/03/21 05:16:51;;;;;;;7.90;6.70;;;;;;;;;;5052305;28;20454;-92
2023/03/21 05:19:19;;;;;;;14.30;7.93;;;;;;;;;;5072613;28;20456;-92
2023/03/21 05:21:46;;;;;;;8.37;7.00;;;;;;;;;;5070382;28;20436;-90
2023/03/21 05:24:15;;;;;;;12.87;7.47;;;;;;;;;;5057068;28;20471;-92
2023/03/21 05:26:42;;;;;;;9.10;7.20;;;;;;;;;;5066763;28;20524;-93
2023/03/21 05:29:09;;;;;;;9.40;7.37;;;;;;;;;;5062286;28;20448;-94
2023/03/21 05:31:35;;;;;;;8.23;6.57;;;;;;;;;;5071738;28;21124;-92
2023/03/21 05:34:27;;;;;;;9.60;6.90;;;;;;;;;;5066079;28;20444;-94
2023/03/21 05:36:57;;;;;;;9.10;7.40;;;;;;;;;;5063837;28;20457;-92
2023/03/21 05:39:24;;;;;;;8.30;6.43;;;;;;;;;;5068351;28;20482;-91
2023/03/21 05:41:50;;;;;;;8.07;6.70;;;;;;;;;;5041314;28;20534;-90
2023/03/21 05:44:16;;;;;;;7.30;6.60;;;;;;;;;;5053821;28;20930;-90
2023/03/21 05:46:44;;;;;;;7.43;6.17;;;;;;;;;;5072286;28;20562;-93
2023/03/21 05:49:11;;;;;;;9.27;7.03;;;;;;;;;;5048345;28;20460;-92
2023/03/21 05:51:37;;;;;;;9.20;8.07;;;;;;;;;;5050037;28;20442;-92
2023/03/21 05:54:15;;;;;;;9.47;6.50;;;;;;;;;;5054759;28;20433;-91
2023/03/21 05:56:41;;;;;;;9.90;6.83;;;;;;;;;;5056785;28;20442;-92
2023/03/21 05:59:07;;;;;;;12.13;7.97;;;;;;;;;;5070041;28;20543;-92
2023/03/21 06:01:33;;;;;;;9.40;6.80;;;;;;;;;;5075110;28;20464;-91
2023/03/21 06:04:00;;;;;;;8.00;7.00;;;;;;;;;;5089691;28;20809;-91
2023/03/21 06:06:27;;;;;;;10.63;7.50;;;;;;;;;;5069206;28;20433;-92
2023/03/21 06:09:33;;;;;;;7.00;6.30;;;;;;;;;;5061831;28;20464;-92
2023/03/21 06:11:59;;;;;;;7.43;6.93;;;;;;;;;;5071829;28;20455;-92
2023/03/21 06:14:25;;;;;;;8.40;6.50;;;;;;;;;;5057253;28;20491;-93
2023/03/21 06:16:52;;;;;;;11.80;7.90;;;;;;;;;;5056549;28;20431;-92
2023/03/21 06:19:26;;;;;;;5.60;5.00;;;;;;;;;;5059640;28;20464;-91
2023/03/21 06:21:54;;;;;;;8.63;6.90;;;;;;;;;;5046304;28;20440;-88
2023/03/21 06:24:21;;;;;;;8.53;6.00;;;;;;;;;;5045882;28;21101;-93
2023/03/21 06:26:47;;;;;;;6.27;5.63;;;;;;;;;;5069371;28;20442;-92
2023/03/21 06:29:13;;;;;;;12.07;6.73;;;;;;;;;;5054689;28;20517;-91
2023/03/21 06:31:41;;;;;;;9.40;5.73;;;;;;;;;;5074368;28;20448;-91
2023/03/21 06:34:10;;;;;;;8.90;7.20;;;;;;;;;;5065448;28;20458;-91
2023/03/21 06:36:47;;;;;;;10.27;6.43;;;;;;;;;;5056193;28;20447;-90
2023/03/21 06:39:14;;;;;;;8.20;6.37;;;;;;;;;;5080549;28;20470;-93
2023/03/21 06:41:41;;;;;;;8.23;5.50;;;;;;;;;;5055657;28;21050;-91
2023/03/21 06:44:09;;;;;;;11.40;6.90;;;;;;;;;;5076478;28;20417;-91
2023/03/21 06:46:38;;;;;;;6.53;5.80;;;;;;;;;;5059063;28;20425;-92
2023/03/21 06:49:07;;;;;;;7.77;7.13;;;;;;;;;;5062991;28;20827;-93
2023/03/21 06:51:37;;;;;;;8.33;7.40;;;;;;;;;;5081702;28;20424;-94
2023/03/21 06:54:23;;;;;;;;;;;;;;;;;;;;;
2023/03/21 06:56:59;;;;;;;15.17;7.00;;;;;;;;;;5111382;22;20528;-85
2023/03/21 06:59:25;;;;;;;5.10;4.70;;;;;;;;;;5090394;28;20557;-84
2023/03/21 07:01:51;;;;;;;11.83;7.07;;;;;;;;;;5106490;28;20459;-85
2023/03/21 07:04:17;;;;;;;6.77;6.07;;;;;;;;;;5090598;28;20882;-85
2023/03/21 07:06:43;;;;;;;7.97;6.07;;;;;;;;;;5102395;28;20439;-85
2023/03/21 07:09:09;;;;;;;6.40;5.80;;;;;;;;;;5103315;28;20463;-86
2023/03/21 07:11:35;;;;;;;11.23;5.33;;;;;;;;;;5103026;28;20436;-84
2023/03/21 07:14:01;;;;;;;8.00;5.27;;;;;;;;;;5104478;28;20420;-85
2023/03/21 07:16:27;;;;;;;15.70;7.10;;;;;;;;;;5101342;28;20446;-84
2023/03/21 07:18:54;;;;;;;10.60;6.70;;;;;;;;;;5078939;28;20460;-84
2023/03/21 07:21:20;;;;;;;6.83;5.97;;;;;;;;;;5083808;28;20413;-85
2023/03/21 07:23:46;;;;;;;11.33;5.87;;;;;;;;;;5085702;28;20483;-84
2023/03/21 07:26:12;;;;;;;7.97;4.43;;;;;;;;;;5084959;28;20657;-83
2023/03/21 07:28:38;;;;;;;8.20;5.40;;;;;;;;;;5085180;28;20497;-85
2023/03/21 07:31:08;;;;;;;13.83;6.53;;;;;;;;;;5081350;28;20855;-84
2023/03/21 07:33:34;;;;;;;6.53;5.10;;;;;;;;;;5071322;28;20444;-84
2023/03/21 07:36:01;;;;;;;6.90;5.90;;;;;;;;;;5070330;28;21118;-85
2023/03/21 07:38:29;;;;;;;12.40;5.90;;;;;;;;;;5062816;28;20476;-84
2023/03/21 07:40:55;;;;;;;12.27;5.70;;;;;;;;;;5090818;28;20427;-84
2023/03/21 07:43:21;;;;;;;8.03;6.80;;;;;;;;;;5076680;28;20588;-84
2023/03/21 07:45:47;;;;;;;8.57;5.07;;;;;;;;;;5088482;28;20433;-84
2023/03/21 07:48:16;;;;;;;6.47;5.80;;;;;;;;;;5088146;28;20435;-85
2023/03/21 07:50:42;;;;;;;5.50;5.20;;;;;;;;;;5090717;28;20471;-83
2023/03/21 07:53:08;;;;;;;13.43;6.27;;;;;;;;;;5091705;28;20424;-82
2023/03/21 07:55:34;;;;;;;8.13;5.80;;;;;;;;;;5089118;28;20440;-83
2023/03/21 07:58:01;;;;;;;6.17;5.60;;;;;;;;;;5054524;28;20457;-84
2023/03/21 08:00:27;;;;;;;5.83;5.27;;;;;;;;;;5087080;28;20536;-84
2023/03/21 08:02:53;;;;;;;8.13;7.20;;;;;;;;;;5093959;28;20488;-84
2023/03/21 08:05:32;;;;;;;8.70;6.20;;;;;;;;;;5146862;22;20548;-92
2023/03/21 08:08:07;;;;;;;8.17;6.37;;;;;;;;;;5039126;28;20696;-91
2023/03/21 08:10:39;;;;;;;12.27;6.30;;;;;;;;;;5061245;28;20436;-91
2023/03/21 08:13:10;;;;;;;7.00;4.70;;;;;;;;;;5195347;23;20479;-83
2023/03/21 08:15:36;;;;;;;7.80;7.10;;;;;;;;;;5128852;28;20442;-84
2023/03/21 08:18:02;;;;;;;9.83;5.97;;;;;;;;;;5094407;28;21170;-82
2023/03/21 08:20:28;;;;;;;6.87;6.03;;;;;;;;;;5079201;28;20419;-82
2023/03/21 08:22:55;;;;;;;7.73;5.70;;;;;;;;;;5079595;28;20501;-81
2023/03/21 08:25:21;;;;;;;8.53;6.90;;;;;;;;;;5087670;28;20431;-81
2023/03/21 08:27:47;;;;;;;9.07;5.40;;;;;;;;;;5087269;28;20431;-80
2023/03/21 08:30:15;;;;;;;8.50;5.80;;;;;;;;;;5084012;28;20466;-81
2023/03/21 08:32:41;;;;;;;8.37;6.50;;;;;;;;;;5106791;28;20443;-85
2023/03/21 08:35:11;;;;;;;8.93;6.23;;;;;;;;;;5093361;28;20424;-82
2023/03/21 08:37:37;;;;;;;8.07;7.30;;;;;;;;;;5091275;28;20483;-85
2023/03/21 08:40:10;;;;;;;12.17;7.67;;;;;;;;;;5098898;28;20478;-84
2023/03/21 08:42:36;;;;;;;4.87;4.37;;;;;;;;;;5107470;28;20440;-85
2023/03/21 08:45:03;;;;;;;7.43;6.80;;;;;;;;;;5109990;28;20515;-86
2023/03/21 08:47:29;;;;;;;13.23;8.27;;;;;;;;;;5089970;28;20428;-84
2023/03/21 08:49:56;;;;;;;13.33;8.30;;;;;;;;;;5093114;28;20405;-84
2023/03/21 08:52:22;;;;;;;10.87;7.30;;;;;;;;;;5102685;28;20445;-84
2023/03/21 08:54:51;;;;;;;9.20;7.40;;;;;;;;;;5097996;28;20854;-83
2023/03/21 08:57:17;;;;;;;12.50;7.33;;;;;;;;;;5103982;28;20453;-81
2023/03/21 08:59:43;;;;;;;8.10;7.40;;;;;;;;;;5100249;28;20412;-83
2023/03/21 09:02:15;;;;;;;16.47;7.53;;;;;;;;;;5094012;28;20896;-83
2023/03/21 09:04:42;;;;;;;9.27;7.33;;;;;;;;;;5092297;28;20443;-85
2023/03/21 09:07:10;;;;;;;10.43;5.93;;;;;;;;;;5071381;28;20436;-83
2023/03/21 09:09:36;;;;;;;10.73;7.93;;;;;;;;;;5099847;28;20827;-82
2023/03/21 09:12:02;;;;;;;8.77;7.57;;;;;;;;;;5093136;28;20431;-85
2023/03/21 09:14:28;;;;;;;8.40;7.60;;;;;;;;;;5093057;28;20468;-83
2023/03/21 09:16:54;;;;;;;9.07;7.87;;;;;;;;;;5087300;28;20423;-83
2023/03/21 09:19:26;;;;;;;6.93;5.90;;;;;;;;;;5091964;28;20476;-84
2023/03/21 09:21:52;;;;;;;10.73;7.73;;;;;;;;;;5101560;28;20419;-85
2023/03/21 09:24:19;;;;;;;12.77;7.87;;;;;;;;;;5106908;28;20524;-82
2023/03/21 09:26:49;;;;;;;13.27;8.73;;;;;;;;;;5109031;28;20457;-81
2023/03/21 09:29:15;;;;;;;13.20;8.50;;;;;;;;;;5102628;28;20451;-85
2023/03/21 09:31:42;;;;;;;8.67;7.30;;;;;;;;;;5102751;28;20423;-85
2023/03/21 09:34:08;;;;;;;15.33;9.67;;;;;;;;;;5095095;28;20479;-84
2023/03/21 09:36:35;;;;;;;10.10;5.77;;;;;;;;;;5102275;28;20443;-85
2023/03/21 09:39:02;;;;;;;12.37;6.73;;;;;;;;;;5099134;28;20457;-84
2023/03/21 09:41:50;;;;;;;14.20;8.87;;;;;;;;;;5118234;28;20408;-85
2023/03/21 09:44:32;;;;;;;10.87;7.40;;;;;;;;;;5100989;28;20432;-86
2023/03/21 09:47:33;;;;;;;8.30;6.07;;;;;;;;;;5104947;28;20443;-85
2023/03/21 09:50:19;;;;;;;9.53;6.63;;;;;;;;;;5103407;28;20434;-86
2023/03/21 09:52:54;;;;;;;9.03;7.27;;;;;;;;;;5091806;28;20462;-83
2023/03/21 09:55:25;;;;;;;6.73;5.70;;;;;;;;;;5098455;28;20504;-80
2023/03/21 09:57:59;;;;;;;10.10;7.33;;;;;;;;;;5101695;28;20557;-83
2023/03/21 10:00:28;;;;;;;7.70;6.00;;;;;;;;;;5083569;28;20501;-81
2023/03/21 10:02:58;;;;;;;6.97;6.23;;;;;;;;;;5105502;28;20465;-82
2023/03/21 10:05:25;;;;;;;5.93;5.43;;;;;;;;;;5080088;28;20498;-83
2023/03/21 10:07:54;;;;;;;7.10;6.43;;;;;;;;;;5101992;28;20430;-81
2023/03/21 10:10:25;;;;;;;7.17;6.27;;;;;;;;;;5100913;28;20801;-81
2023/03/21 10:12:52;;;;;;;5.13;4.77;;;;;;;;;;5100459;28;20523;-81
2023/03/21 10:15:20;;;;;;;7.07;4.80;;;;;;;;;;5095677;28;20440;-82
2023/03/21 10:17:51;;;;;;;5.43;4.90;;;;;;;;;;5102903;28;20518;-82
2023/03/21 10:20:17;;;;;;;5.57;5.07;;;;;;;;;;5092107;28;20505;-83
2023/03/21 10:22:47;;;;;;;7.00;6.13;;;;;;;;;;5102460;28;20515;-81
2023/03/21 10:25:15;;;;;;;6.33;3.87;;;;;;;;;;5100123;28;20440;-85
2023/03/21 10:27:42;;;;;;;7.30;5.40;;;;;;;;;;5097828;28;20419;-83
2023/03/21 10:30:09;;;;;;;6.60;5.67;;;;;;;;;;5100897;28;20501;-85
2023/03/21 10:32:36;;;;;;;8.67;4.77;;;;;;;;;;5103102;28;20419;-85
2023/03/21 10:35:03;;;;;;;5.37;5.00;;;;;;;;;;5091290;28;20424;-84
2023/03/21 10:37:31;;;;;;;5.00;4.40;;;;;;;;;;5100271;28;20432;-85
2023/03/21 10:39:57;;;;;;;11.00;5.07;;;;;;;;;;5100007;28;20442;-81
2023/03/21 10:42:31;;;;;;;5.83;5.30;;;;;;;;;;5077682;28;20462;-85
2023/03/21 10:44:58;;;;;;;6.13;5.70;;;;;;;;;;5091889;28;20419;-84
2023/03/21 10:47:25;;;;;;;9.90;6.10;;;;;;;;;;5101560;28;20411;-85
2023/03/21 10:49:54;;;;;;;7.83;6.00;;;;;;;;;;5100171;28;20444;-86
2023/03/21 10:52:21;;;;;;;6.57;5.77;;;;;;;;;;5098554;28;20441;-85
2023/03/21 10:55:04;;;;;;;6.03;5.53;;;;;;;;;;5092289;28;20431;-84
2023/03/21 10:57:30;;;;;;;6.50;5.57;;;;;;;;;;5098472;28;20709;-84
2023/03/21 10:59:58;;;;;;;6.57;5.97;;;;;;;;;;5106524;28;20452;-83
2023/03/21 11:02:36;;;;;;;7.57;6.50;;;;;;;;;;5103543;28;20775;-85
2023/03/21 11:05:31;;;;;;;6.47;5.80;;;;;;;;;;5096789;28;20614;-86
2023/03/21 11:08:17;;;;;;;9.10;5.37;;;;;;;;;;5079393;28;20499;-83
2023/03/21 11:10:49;;;;;;;5.00;4.40;;;;;;;;;;5095296;28;20408;-85
2023/03/21 11:13:36;;;;;;;5.37;4.87;;;;;;;;;;5098739;28;20443;-85
2023/03/21 11:16:18;;;;;;;6.50;5.40;;;;;;;;;;5096399;28;20420;-84
2023/03/21 11:18:49;;;;;;;5.33;4.97;;;;;;;;;;5111395;28;20459;-83
2023/03/21 11:21:15;;;;;;;8.70;5.70;;;;;;;;;;5094028;28;20440;-80
2023/03/21 11:23:45;;;;;;;5.47;5.00;;;;;;;;;;5078241;28;20431;-80
2023/03/21 11:26:16;;;;;;;6.43;5.40;;;;;;;;;;5099897;28;20427;-85
2023/03/21 11:28:43;;;;;;;5.10;4.63;;;;;;;;;;5121040;28;20419;-83
2023/03/21 11:31:10;;;;;;;5.47;5.00;;;;;;;;;;5113534;28;20435;-86
2023/03/21 11:33:39;;;;;;;11.47;4.00;;;;;;;;;;5101216;28;20444;-81
2023/03/21 11:36:05;;;;;;;5.27;4.00;;;;;;;;;;5077382;28;20823;-82
2023/03/21 11:38:38;;;;;;;4.07;3.70;;;;;;;;;;5106465;28;20480;-83
2023/03/21 11:41:05;;;;;;;4.40;3.97;;;;;;;;;;5109077;28;20431;-85
2023/03/21 11:43:35;;;;;;;4.63;4.23;;;;;;;;;;5112195;28;20412;-84
2023/03/21 11:46:04;;;;;;;4.70;3.90;;;;;;;;;;5113646;28;20424;-85
2023/03/21 11:48:37;;;;;;;4.30;3.90;;;;;;;;;;5107247;28;20551;-81
2023/03/21 11:51:10;;;;;;;4.33;3.93;;;;;;;;;;5097827;28;21026;-82
2023/03/21 11:53:38;;;;;;;4.00;3.70;;;;;;;;;;5102597;28;20508;-80
2023/03/21 11:56:04;;;;;;;7.43;3.60;;;;;;;;;;5105770;28;20523;-84
2023/03/21 11:58:37;;;;;;;4.50;4.10;;;;;;;;;;5103038;28;20466;-84
2023/03/21 12:01:09;;;;;;;5.00;3.00;;;;;;;;;;5114442;28;20446;-85
2023/03/21 12:03:45;;;;;;;3.90;3.40;;;;;;;;;;5107409;28;20405;-84
2023/03/21 12:06:22;;;;;;;3.43;3.33;;;;;;;;;;5110189;28;20427;-83
2023/03/21 12:08:59;;;;;;;2.70;2.60;;;;;;;;;;5104650;28;20420;-84
2023/03/21 12:11:45;;;;;;;4.23;4.00;;;;;;;;;;5108064;28;20447;-82
2023/03/21 12:14:23;;;;;;;5.30;4.00;;;;;;;;;;5102513;28;20498;-83
2023/03/21 12:16:50;;;;;;;3.90;3.70;;;;;;;;;;5096029;28;20609;-82
2023/03/21 12:19:19;;;;;;;2.97;2.87;;;;;;;;;;5103504;28;20475;-85
2023/03/21 12:21:52;;;;;;;4.07;3.43;;;;;;;;;;5109898;28;20477;-83
2023/03/21 12:24:21;;;;;;;3.50;3.30;;;;;;;;;;5103690;28;20470;-84
2023/03/21 12:26:53;;;;;;;3.23;3.03;;;;;;;;;;5096574;28;20458;-85
2023/03/21 12:29:26;;;;;;;2.80;2.70;;;;;;;;;;5100385;28;20469;-80
2023/03/21 12:31:57;;;;;;;3.43;3.27;;;;;;;;;;5104832;28;20412;-81
2023/03/21 12:34:42;;;;;;;4.43;4.00;;;;;;;;;;5095189;28;20451;-83
2023/03/21 12:37:17;;;;;;;4.50;3.93;;;;;;;;;;5105398;28;20449;-84
2023/03/21 12:39:45;;;;;;;4.37;3.80;;;;;;;;;;5109010;28;20474;-82
2023/03/21 12:42:33;;;;;;;9.03;4.80;;;;;;;;;;5104336;28;20421;-85
2023/03/21 12:45:05;;;;;;;4.83;4.43;;;;;;;;;;5100510;28;20627;-84
2023/03/21 12:47:35;;;;;;;6.23;4.83;;;;;;;;;;5107097;28;20432;-81
2023/03/21 12:50:05;;;;;;;10.20;4.80;;;;;;;;;;5105962;28;20436;-85
2023/03/21 12:52:51;;;;;;;4.77;4.37;;;;;;;;;;5108769;28;20395;-86
2023/03/21 12:55:27;;;;;;;3.40;3.07;;;;;;;;;;5105931;28;20498;-84
2023/03/21 12:58:10;;;;;;;5.30;4.10;;;;;;;;;;5109199;28;20455;-86
2023/03/21 13:00:44;;;;;;;4.20;4.00;;;;;;;;;;5091159;28;20487;-86
2023/03/21 13:03:20;;;;;;;5.60;2.40;;;;;;;;;;5110513;28;20435;-85
2023/03/21 13:05:52;;;;;;;7.23;4.60;;;;;;;;;;5096322;28;20474;-82
2023/03/21 13:08:36;;;;;;;3.73;3.47;;;;;;;;;;5107004;28;20424;-83
2023/03/21 13:11:03;;;;;;;3.90;3.60;;;;;;;;;;5102203;28;20515;-85
2023/03/21 13:13:41;;;;;;;4.40;4.10;;;;;;;;;;5110062;28;20628;-86
2023/03/21 13:16:33;;;;;;;4.27;4.00;;;;;;;;;;5108823;28;20443;-85
2023/03/21 13:19:17;;;;;;;4.03;3.63;;;;;;;;;;5101402;28;20532;-87
2023/03/21 13:21:51;;;;;;;3.33;3.07;;;;;;;;;;5088938;28;20460;-85
2023/03/21 13:24:16;;;;;;;3.50;3.40;;;;;;;;;;5083117;28;20407;-82
2023/03/21 13:26:45;;;;;;;4.40;4.00;;;;;;;;;;5089973;28;20431;-83
2023/03/21 13:29:15;;;;;;;4.50;4.20;;;;;;;;;;5084860;28;20435;-81
2023/03/21 13:31:47;;;;;;;3.13;3.03;;;;;;;;;;5081950;28;20440;-83
2023/03/21 13:34:14;;;;;;;4.77;4.33;;;;;;;;;;5082988;28;20992;-83
2023/03/21 13:36:41;;;;;;;5.47;4.70;;;;;;;;;;5082504;28;20504;-83
2023/03/21 13:39:16;;;;;;;3.30;3.00;;;;;;;;;;5076504;28;20543;-85
2023/03/21 13:41:43;;;;;;;4.20;3.80;;;;;;;;;;5085151;28;20628;-80
2023/03/21 13:44:19;;;;;;;2.97;2.87;;;;;;;;;;5080756;28;20936;-84
2023/03/21 13:46:53;;;;;;;6.53;4.50;;;;;;;;;;5079000;28;20435;-79
2023/03/21 13:49:32;;;;;;;4.30;4.07;;;;;;;;;;5079818;28;20463;-82
2023/03/21 13:52:00;;;;;;;4.70;3.70;;;;;;;;;;5085637;28;20427;-80
2023/03/21 13:54:28;;;;;;;3.83;3.50;;;;;;;;;;5076942;28;20893;-81
2023/03/21 13:56:57;;;;;;;4.47;2.70;;;;;;;;;;5084998;28;20508;-83
2023/03/21 13:59:41;;;;;;;3.77;3.67;;;;;;;;;;5082077;28;20558;-81
2023/03/21 14:02:26;;;;;;;3.60;3.40;;;;;;;;;;5075277;28;20944;-81
2023/03/21 14:04:54;;;;;;;2.60;2.60;;;;;;;;;;5081392;28;20460;-82
2023/03/21 14:07:25;;;;;;;3.00;3.00;;;;;;;;;;5085454;28;20458;-82
2023/03/21 14:09:52;;;;;;;3.23;3.10;;;;;;;;;;5085452;28;20478;-85
2023/03/21 14:12:22;;;;;;;3.20;3.00;;;;;;;;;;5088258;28;20420;-85
2023/03/21 14:15:09;;;;;;;3.50;3.20;;;;;;;;;;5095516;28;20523;-83
2023/03/21 14:17:35;;;;;;;2.80;2.70;;;;;;;;;;5073588;28;20447;-85
2023/03/21 14:20:22;;;;;;;2.43;2.43;;;;;;;;;;5088627;28;20495;-85
2023/03/21 14:22:48;;;;;;;5.07;3.50;;;;;;;;;;5080903;28;20409;-85
2023/03/21 14:25:15;;;;;;;3.63;3.53;;;;;;;;;;5070033;28;20575;-84
2023/03/21 14:27:47;;;;;;;2.90;2.70;;;;;;;;;;5091776;28;20398;-84
2023/03/21 14:30:24;;;;;;;4.03;3.83;;;;;;;;;;5075880;28;20435;-85
2023/03/21 14:32:53;;;;;;;2.53;2.33;;;;;;;;;;5102740;28;21081;-85
2023/03/21 14:35:20;;;;;;;4.23;3.83;;;;;;;;;;5108148;28;20456;-82
2023/03/21 14:37:47;;;;;;;4.30;3.60;;;;;;;;;;5095971;28;20470;-83
2023/03/21 14:40:23;;;;;;;4.63;3.17;;;;;;;;;;5086750;28;20458;-82
2023/03/21 14:42:50;;;;;;;5.73;3.60;;;;;;;;;;5100583;28;20432;-84
2023/03/21 14:45:22;;;;;;;3.90;3.60;;;;;;;;;;5088289;28;20807;-85
2023/03/21 14:47:55;;;;;;;2.90;2.80;;;;;;;;;;5097254;28;20430;-85
2023/03/21 14:50:28;;;;;;;5.80;3.37;;;;;;;;;;5094026;28;20462;-83
2023/03/21 14:52:54;;;;;;;4.30;4.00;;;;;;;;;;5088234;28;20416;-83
2023/03/21 14:55:20;;;;;;;3.87;3.60;;;;;;;;;;5091914;28;20428;-83
2023/03/21 14:57:46;;;;;;;4.47;3.90;;;;;;;;;;5095529;28;20470;-83
2023/03/21 15:00:17;;;;;;;3.60;3.30;;;;;;;;;;5096836;28;20817;-83
2023/03/21 15:02:45;;;;;;;3.30;3.00;;;;;;;;;;5094633;28;20707;-82
2023/03/21 15:05:13;;;;;;;3.03;2.93;;;;;;;;;;5088236;28;20435;-81
2023/03/21 15:07:39;;;;;;;5.77;3.53;;;;;;;;;;5086735;28;20448;-82
2023/03/21 15:10:08;;;;;;;3.63;3.43;;;;;;;;;;5069721;28;20432;-80
2023/03/21 15:12:34;;;;;;;5.93;4.70;;;;;;;;;;5091504;28;21093;-83
2023/03/21 15:15:01;;;;;;;3.10;2.93;;;;;;;;;;5092760;28;20427;-83
2023/03/21 15:17:28;;;;;;;5.60;4.23;;;;;;;;;;5086100;28;20443;-78
2023/03/21 15:19:54;;;;;;;3.70;3.50;;;;;;;;;;5087705;28;20470;-83
2023/03/21 15:22:36;;;;;;;3.30;3.10;;;;;;;;;;5084459;28;20431;-81
2023/03/21 15:25:04;;;;;;;3.53;3.43;;;;;;;;;;5083793;28;20434;-82
2023/03/21 15:27:32;;;;;;;3.70;3.50;;;;;;;;;;5069599;28;20866;-81
2023/03/21 15:29:58;;;;;;;4.37;4.07;;;;;;;;;;5092163;28;20447;-84
2023/03/21 15:32:26;;;;;;;4.10;3.73;;;;;;;;;;5091051;28;20948;-82
2023/03/21 15:35:03;;;;;;;4.40;4.10;;;;;;;;;;5087150;28;20435;-84
2023/03/21 15:37:33;;;;;;;4.20;4.03;;;;;;;;;;5084401;28;20412;-84
2023/03/21 15:40:14;;;;;;;3.30;3.20;;;;;;;;;;5084139;28;20430;-85
2023/03/21 15:42:41;;;;;;;3.73;3.63;;;;;;;;;;5088023;28;20951;-82
2023/03/21 15:45:15;;;;;;;2.63;2.63;;;;;;;;;;5086808;28;20444;-85
2023/03/21 15:47:42;;;;;;;3.00;2.90;;;;;;;;;;5103261;28;20467;-84
2023/03/21 15:50:10;;;;;;;4.53;3.97;;;;;;;;;;5101032;28;20451;-82
2023/03/21 15:52:37;;;;;;;3.70;3.40;;;;;;;;;;5077248;28;20472;-85
2023/03/21 15:55:12;;;;;;;3.93;3.67;;;;;;;;;;5105302;28;20641;-83
2023/03/21 15:57:46;;;;;;;4.10;3.70;;;;;;;;;;5095056;28;20763;-83
2023/03/21 16:00:21;;;;;;;3.40;3.00;;;;;;;;;;5078911;28;20450;-85
2023/03/21 16:02:48;;;;;;;3.83;3.73;;;;;;;;;;5083643;28;20496;-84
2023/03/21 16:05:27;;;;;;;3.30;3.17;;;;;;;;;;5098849;28;20424;-85
2023/03/21 16:07:57;;;;;;;5.03;3.70;;;;;;;;;;5087554;28;20428;-85
2023/03/21 16:10:30;;;;;;;2.83;2.60;;;;;;;;;;5072255;28;20447;-85
2023/03/21 16:12:57;;;;;;;3.90;3.77;;;;;;;;;;5093653;28;20463;-81
2023/03/21 16:15:25;;;;;;;3.43;3.33;;;;;;;;;;5097332;28;20463;-86
2023/03/21 16:17:53;;;;;;;3.70;3.50;;;;;;;;;;5093740;28;20459;-83